KPTV

Porterville Municipal Airport

Porterville, California, USA
METAR KPTV 171756Z AUTO VRB03KT 10SM CLR 23/02 A3012 RMK AO2 SLP208 T02280017 10228 20083 50001
Observed Flight Rules
Oct-17 @ 17:56 UTC (24 minutes ago) Visual Flight Rules
Wind Visibility Clouds
Variable at 3 knots 10 miles
  • Clear skies
Temperatures Readings
Current 23°C / 73°F
Dewpoint 2°C / 36°F
Humidity 25%
Altimeter 30.12" Hg
Pressure 1020.8 hPa
Elevation 135
METAR KPTV 171756Z AUTO VRB03KT 10SM CLR 23/02 A3012 RMK AO2 SLP208 T02280017 10228 20083 50001
Observed Flight Rules
Oct-17 @ 17:56 UTC
(24 minutes ago)
VFR
Wind Visibility
Variable at 3 knots 10 miles
Clouds
  • Clear skies
Temperature Dewpoint
23°C / 73°F 2°C / 36°F
Humidity Altimeter Pressure
25% 30.12" Hg 1020.8 hPa